createdAt,value
2023-03-05T00:01:24.466Z,70.00
2023-03-05T00:03:52.781Z,80.00
2023-03-05T00:06:24.108Z,52.25
2023-03-05T00:08:53.392Z,47.25
2023-03-05T00:11:21.253Z,38.00
2023-03-05T00:13:48.422Z,44.25
2023-03-05T00:16:16.459Z,42.50
2023-03-05T00:18:43.888Z,44.25
2023-03-05T00:21:22.660Z,58.50
2023-03-05T00:23:50.867Z,71.00
2023-03-05T00:26:19.821Z,47.25
2023-03-05T00:28:51.813Z,55.50
2023-03-05T00:31:21.663Z,63.25
2023-03-05T00:33:53.400Z,79.25
2023-03-05T00:36:20.535Z,86.75
2023-03-05T00:38:47.859Z,70.75
2023-03-05T00:41:14.638Z,55.75
2023-03-05T00:43:41.508Z,61.50
2023-03-05T00:46:08.724Z,64.75
2023-03-05T00:48:35.605Z,50.75
2023-03-05T00:51:02.547Z,57.25
2023-03-05T00:53:29.498Z,79.50
2023-03-05T00:55:56.407Z,78.00
2023-03-05T00:58:23.412Z,61.25
2023-03-05T01:00:50.808Z,57.00
2023-03-05T01:03:20.647Z,61.00
2023-03-05T01:05:48.542Z,53.00
2023-03-05T01:08:16.034Z,59.00
2023-03-05T01:10:42.878Z,68.25
2023-03-05T01:13:09.907Z,52.25
2023-03-05T01:15:36.828Z,48.75
2023-03-05T01:18:03.773Z,60.75
2023-03-05T01:20:30.640Z,58.50
2023-03-05T01:22:59.259Z,56.00
2023-03-05T01:25:26.112Z,50.25
2023-03-05T01:27:52.987Z,43.50
2023-03-05T01:30:20.140Z,45.00
2023-03-05T01:32:47.054Z,44.00
2023-03-05T01:35:20.875Z,43.50
2023-03-05T01:37:48.002Z,39.25
2023-03-05T01:40:17.927Z,40.25
2023-03-05T01:42:49.567Z,40.25
2023-03-05T01:45:18.531Z,42.50
2023-03-05T01:47:45.575Z,42.50
2023-03-05T01:50:20.712Z,38.50
2023-03-05T01:52:54.631Z,40.25
2023-03-05T01:55:24.645Z,42.50
2023-03-05T01:57:56.606Z,40.25
2023-03-05T02:00:32.169Z,38.25
2023-03-05T02:03:03.659Z,40.25
2023-03-05T02:05:33.324Z,39.25
2023-03-05T02:08:03.037Z,39.25
2023-03-05T02:10:40.396Z,41.50
2023-03-05T02:13:10.161Z,41.00
2023-03-05T02:15:38.717Z,45.25
2023-03-05T02:18:07.178Z,43.50
2023-03-05T02:20:56.848Z,39.00
2023-03-05T02:23:36.569Z,44.25
2023-03-05T02:26:10.492Z,43.00
2023-03-05T02:28:47.816Z,41.75
2023-03-05T02:31:18.240Z,38.75
2023-03-05T02:33:46.041Z,43.00
2023-03-05T02:36:14.141Z,43.75
2023-03-05T02:38:44.965Z,44.50
2023-03-05T02:41:12.177Z,45.25
2023-03-05T02:43:39.450Z,43.50
2023-03-05T02:46:06.781Z,45.25
2023-03-05T02:48:33.825Z,44.00
2023-03-05T02:51:02.884Z,42.25
2023-03-05T02:53:29.759Z,40.25
2023-03-05T02:55:56.904Z,42.25
2023-03-05T02:58:23.755Z,39.75
2023-03-05T03:00:51.087Z,41.50
2023-03-05T03:03:18.019Z,43.75
2023-03-05T03:05:44.848Z,39.25
2023-03-05T03:08:11.645Z,40.75
2023-03-05T03:10:38.476Z,42.50
2023-03-05T03:13:05.237Z,44.00
2023-03-05T03:15:32.305Z,42.25
2023-03-05T03:17:59.050Z,41.25
2023-03-05T03:20:25.827Z,42.25
2023-03-05T03:22:52.723Z,41.25
2023-03-05T03:25:22.208Z,40.00
2023-03-05T03:27:52.188Z,45.00
2023-03-05T03:30:19.396Z,44.00
2023-03-05T03:32:46.248Z,40.75
2023-03-05T03:35:13.978Z,37.75
2023-03-05T03:37:40.916Z,42.00
2023-03-05T03:40:08.899Z,41.75
2023-03-05T03:42:36.045Z,31.00
2023-03-05T03:45:03.469Z,39.00
2023-03-05T03:47:31.009Z,41.00
2023-03-05T03:49:59.123Z,40.00
2023-03-05T03:52:26.581Z,33.50
2023-03-05T03:54:55.712Z,40.75
2023-03-05T03:57:22.734Z,39.75
2023-03-05T03:59:50.474Z,41.25
2023-03-05T04:02:17.583Z,40.75
2023-03-05T04:04:44.640Z,43.00
2023-03-05T04:07:11.580Z,40.00
2023-03-05T04:09:38.751Z,37.00
2023-03-05T04:12:06.009Z,41.00
2023-03-05T04:14:32.798Z,39.00
2023-03-05T04:16:59.660Z,42.00
2023-03-05T04:19:26.376Z,40.75
2023-03-05T04:21:53.098Z,36.00
2023-03-05T04:24:20.001Z,35.00
2023-03-05T04:26:46.740Z,39.75
2023-03-05T04:29:13.559Z,38.50
2023-03-05T04:31:40.365Z,40.00
2023-03-05T04:34:07.230Z,39.00
2023-03-05T04:36:34.071Z,45.75
2023-03-05T04:39:01.132Z,45.75
2023-03-05T04:41:27.960Z,43.75
2023-03-05T04:43:54.902Z,44.00
2023-03-05T04:46:21.783Z,44.00
2023-03-05T04:48:48.638Z,42.25
2023-03-05T04:51:15.456Z,44.75
2023-03-05T04:53:42.276Z,42.25
2023-03-05T04:56:09.062Z,39.25
2023-03-05T04:58:35.911Z,43.00
2023-03-05T05:01:04.777Z,43.50
2023-03-05T05:03:31.984Z,45.00
2023-03-05T05:05:59.875Z,41.00
2023-03-05T05:08:27.846Z,39.50
2023-03-05T05:11:00.285Z,38.75
2023-03-05T05:13:27.560Z,39.00
2023-03-05T05:15:55.055Z,42.00
2023-03-05T05:18:22.124Z,45.00
2023-03-05T05:20:49.497Z,42.50
2023-03-05T05:23:17.426Z,42.00
2023-03-05T05:25:44.549Z,45.75
2023-03-05T05:28:12.390Z,42.00
2023-03-05T05:30:39.287Z,43.00
2023-03-05T05:33:06.190Z,41.75
2023-03-05T05:35:33.102Z,42.25
2023-03-05T05:37:59.872Z,40.25
2023-03-05T05:40:26.730Z,40.50
2023-03-05T05:42:53.893Z,37.00
2023-03-05T05:45:20.732Z,35.00
2023-03-05T05:47:47.501Z,36.75
2023-03-05T05:50:14.925Z,34.00
2023-03-05T05:52:41.707Z,34.75
2023-03-05T05:55:09.118Z,35.50
2023-03-05T05:57:35.926Z,37.00
2023-03-05T06:00:06.044Z,35.75
2023-03-05T06:02:39.767Z,37.00
2023-03-05T06:05:08.068Z,35.25
2023-03-05T06:07:35.688Z,35.00
2023-03-05T06:10:03.282Z,38.00
2023-03-05T06:12:30.172Z,39.25
2023-03-05T06:14:57.673Z,37.00
2023-03-05T06:17:30.371Z,38.00
2023-03-05T06:19:58.475Z,38.50
2023-03-05T06:22:25.553Z,37.75
2023-03-05T06:24:52.294Z,38.50
2023-03-05T06:27:19.221Z,36.50
2023-03-05T06:29:45.993Z,38.50
2023-03-05T06:32:12.896Z,38.75
2023-03-05T06:34:39.733Z,41.50
2023-03-05T06:37:07.294Z,39.00
2023-03-05T06:39:34.057Z,38.50
2023-03-05T06:42:00.953Z,35.00
2023-03-05T06:44:27.840Z,32.25
2023-03-05T06:46:54.665Z,36.00
2023-03-05T06:49:21.611Z,37.50
2023-03-05T06:51:48.405Z,37.00
2023-03-05T06:54:17.248Z,32.75
2023-03-05T06:56:46.294Z,36.50
2023-03-05T06:59:15.447Z,37.25
2023-03-05T07:01:43.348Z,34.25
2023-03-05T07:04:12.032Z,36.00
2023-03-05T07:06:39.326Z,35.00
2023-03-05T07:09:07.904Z,33.50
2023-03-05T07:11:34.760Z,35.75
2023-03-05T07:14:01.956Z,35.75
2023-03-05T07:16:31.258Z,34.25
2023-03-05T07:18:59.423Z,35.50
2023-03-05T07:21:28.749Z,32.00
2023-03-05T07:23:57.363Z,31.25
2023-03-05T07:26:25.106Z,36.00
2023-03-05T07:28:52.211Z,61.25
2023-03-05T07:31:21.751Z,50.75
2023-03-05T07:33:50.357Z,33.25
2023-03-05T07:36:17.932Z,36.50
2023-03-05T07:38:45.279Z,37.00
2023-03-05T07:41:19.645Z,39.25
2023-03-05T07:43:48.640Z,34.25
2023-03-05T07:46:17.830Z,36.75
2023-03-05T07:48:45.301Z,33.25
2023-03-05T07:51:17.864Z,36.25
2023-03-05T07:53:45.852Z,34.25
2023-03-05T07:56:12.800Z,38.25
2023-03-05T07:58:39.662Z,38.50
2023-03-05T08:01:14.020Z,36.00
2023-03-05T08:03:42.141Z,37.00
2023-03-05T08:06:10.633Z,43.25
2023-03-05T08:08:37.957Z,32.00
2023-03-05T08:11:11.150Z,33.25
2023-03-05T08:13:39.068Z,35.25
2023-03-05T08:16:08.398Z,36.00
2023-03-05T08:18:35.684Z,33.50
2023-03-05T08:21:03.048Z,63.25
2023-03-05T08:23:30.720Z,38.00
2023-03-05T08:25:57.674Z,36.75
2023-03-05T08:28:24.509Z,34.50
2023-03-05T08:30:51.548Z,35.25
2023-03-05T08:33:19.222Z,36.00
2023-03-05T08:35:46.474Z,68.75
2023-03-05T08:38:13.604Z,33.50
2023-03-05T08:40:40.369Z,35.75
2023-03-05T08:43:07.483Z,38.00
2023-03-05T08:45:34.355Z,39.00
2023-03-05T08:48:01.236Z,34.25
2023-03-05T08:50:28.212Z,32.75
2023-03-05T08:52:57.043Z,26.50
2023-03-05T08:55:24.027Z,37.25
2023-03-05T08:57:50.966Z,37.00
2023-03-05T09:00:18.313Z,37.00
2023-03-05T09:02:45.125Z,39.50
2023-03-05T09:05:12.054Z,38.00
2023-03-05T09:07:39.104Z,36.25
2023-03-05T09:10:06.775Z,37.00
2023-03-05T09:12:33.634Z,36.50
2023-03-05T09:15:00.483Z,36.00
2023-03-05T09:17:27.274Z,37.50
2023-03-05T09:19:54.088Z,35.75
2023-03-05T09:22:20.952Z,46.50
2023-03-05T09:24:47.791Z,41.25
2023-03-05T09:27:14.584Z,36.00
2023-03-05T09:29:43.038Z,38.25
2023-03-05T09:32:10.383Z,34.00
2023-03-05T09:34:37.332Z,29.00
2023-03-05T09:37:04.305Z,33.00
2023-03-05T09:39:31.140Z,34.75
2023-03-05T09:42:28.301Z,33.00
2023-03-05T09:45:18.229Z,32.00
2023-03-05T09:48:09.901Z,26.50
2023-03-05T09:50:51.214Z,19.67
2023-03-05T09:54:12.766Z,27.00
2023-03-05T09:56:46.856Z,25.00
2023-03-05T09:59:28.953Z,23.00
2023-03-05T10:02:01.611Z,23.00
2023-03-05T10:04:44.365Z,26.00
2023-03-05T10:07:20.346Z,26.00
2023-03-05T10:09:56.612Z,25.25
2023-03-05T10:12:28.019Z,25.50
2023-03-05T10:14:55.278Z,24.00
2023-03-05T10:17:37.168Z,27.25
2023-03-05T10:20:25.936Z,25.25
2023-03-05T10:23:04.909Z,26.50
2023-03-05T10:25:52.331Z,26.75
2023-03-05T10:28:28.557Z,24.25
2023-03-05T10:31:30.369Z,25.00
2023-03-05T10:34:27.490Z,23.25
2023-03-05T10:37:21.496Z,26.25
2023-03-05T10:40:12.297Z,27.25
2023-03-05T10:42:55.560Z,25.00
2023-03-05T10:45:31.804Z,23.00
2023-03-05T10:48:01.637Z,22.33
2023-03-05T10:50:34.541Z,21.00
2023-03-05T10:53:10.580Z,18.00
2023-03-05T10:55:37.372Z,23.67
2023-03-05T10:58:13.506Z,20.00
2023-03-05T11:00:41.711Z,31.50
2023-03-05T11:03:10.214Z,21.67
2023-03-05T11:05:45.010Z,23.67
2023-03-05T11:08:28.641Z,15.00
2023-03-05T11:11:16.545Z,15.00
2023-03-05T11:13:58.638Z,16.00
2023-03-05T11:16:34.586Z,18.00
2023-03-05T11:19:21.653Z,24.25
2023-03-05T11:22:19.137Z,21.00
2023-03-05T11:25:06.034Z,18.00
2023-03-05T11:27:37.031Z,23.75
2023-03-05T11:30:18.134Z,29.00
2023-03-05T11:32:44.957Z,20.00
2023-03-05T11:35:47.991Z,29.75
2023-03-05T11:38:27.573Z,27.00
2023-03-05T11:40:57.168Z,21.50
2023-03-05T11:43:26.330Z,20.67
2023-03-05T11:46:03.562Z,22.25
2023-03-05T11:48:37.745Z,19.33
2023-03-05T11:51:18.560Z,33.25
2023-03-05T11:53:51.123Z,29.50
2023-03-05T11:56:24.391Z,24.00
2023-03-05T11:59:13.702Z,26.00
2023-03-05T12:01:47.290Z,26.00
2023-03-05T12:04:16.039Z,19.33
2023-03-05T12:06:57.944Z,14.00
2023-03-05T12:09:38.517Z,23.00
2023-03-05T12:12:28.587Z,16.33
2023-03-05T12:15:22.594Z,20.00
2023-03-05T12:18:10.248Z,22.00
2023-03-05T12:20:48.988Z,23.33
2023-03-05T12:23:20.183Z,21.00
2023-03-05T12:25:51.482Z,18.00
2023-03-05T12:28:42.056Z,17.33
2023-03-05T12:31:08.913Z,13.33
2023-03-05T12:33:39.999Z,19.33
2023-03-05T12:36:21.822Z,27.00
2023-03-05T12:38:53.359Z,20.00
2023-03-05T12:41:22.897Z,29.00
2023-03-05T12:44:09.953Z,20.00
2023-03-05T12:46:40.128Z,26.50
2023-03-05T12:49:23.497Z,15.00
2023-03-05T12:51:56.750Z,22.00
2023-03-05T12:54:30.336Z,16.00
2023-03-05T12:57:19.736Z,18.00
2023-03-05T13:00:01.417Z,14.67
2023-03-05T13:02:37.724Z,13.33
2023-03-05T13:05:17.163Z,35.00
2023-03-05T13:07:44.086Z,18.00
2023-03-05T13:10:28.978Z,21.33
2023-03-05T13:12:58.548Z,20.00
2023-03-05T13:15:26.614Z,22.00
2023-03-05T13:18:07.554Z,18.00
2023-03-05T13:20:34.436Z,14.00
2023-03-05T13:23:08.135Z,22.00
2023-03-05T13:25:35.053Z,1.00
2023-03-05T13:28:09.926Z,24.00
2023-03-05T13:30:36.869Z,25.25
2023-03-05T13:33:05.409Z,26.75
2023-03-05T13:35:33.085Z,26.25
2023-03-05T13:38:02.270Z,26.25
2023-03-05T13:40:32.184Z,16.00
2023-03-05T13:43:18.348Z,12.00
2023-03-05T13:45:53.669Z,23.75
2023-03-05T13:48:20.570Z,23.75
2023-03-05T13:50:55.857Z,27.25
2023-03-05T13:53:28.839Z,27.50
2023-03-05T13:56:17.214Z,24.25
2023-03-05T13:58:48.538Z,29.50
2023-03-05T14:01:29.515Z,21.00
2023-03-05T14:04:07.387Z,24.25
2023-03-05T14:06:42.598Z,17.00
2023-03-05T14:09:18.998Z,17.00
2023-03-05T14:12:34.324Z,17.00
2023-03-05T14:15:02.496Z,25.00
2023-03-05T14:17:40.598Z,29.00
2023-03-05T14:20:13.438Z,21.67
2023-03-05T14:22:45.771Z,20.33
2023-03-05T14:25:36.448Z,28.00
2023-03-05T14:28:28.373Z,22.67
2023-03-05T14:30:56.818Z,13.67
2023-03-05T14:33:27.317Z,14.67
2023-03-05T14:35:55.850Z,28.00
2023-03-05T14:38:26.965Z,37.00
2023-03-05T14:40:53.947Z,26.00
2023-03-05T14:43:20.753Z,20.00
2023-03-05T14:45:48.027Z,25.25
2023-03-05T14:48:18.091Z,24.50
2023-03-05T14:50:53.637Z,16.67
2023-03-05T14:53:25.189Z,19.67
2023-03-05T14:55:56.775Z,26.00
2023-03-05T14:58:26.311Z,25.50
2023-03-05T15:00:54.408Z,25.75
2023-03-05T15:03:22.756Z,26.25
2023-03-05T15:05:52.705Z,27.50
2023-03-05T15:08:23.379Z,17.00
2023-03-05T15:10:51.702Z,14.00
2023-03-05T15:13:19.640Z,28.75
2023-03-05T15:15:48.387Z,21.00
2023-03-05T15:18:18.602Z,21.00
2023-03-05T15:20:46.251Z,21.25
2023-03-05T15:23:13.076Z,25.00
2023-03-05T15:25:40.545Z,32.00
2023-03-05T15:28:07.592Z,25.75
2023-03-05T15:30:37.942Z,18.25
2023-03-05T15:33:07.625Z,29.00
2023-03-05T15:35:34.749Z,20.25
2023-03-05T15:38:01.623Z,23.75
2023-03-05T15:40:29.336Z,27.50
2023-03-05T15:42:57.159Z,36.00
2023-03-05T15:45:24.461Z,33.75
2023-03-05T15:47:53.043Z,37.75
2023-03-05T15:50:21.701Z,32.00
2023-03-05T15:52:49.235Z,31.00
2023-03-05T15:55:18.301Z,26.00
2023-03-05T15:57:48.533Z,28.25
2023-03-05T16:00:18.659Z,30.00
2023-03-05T16:02:45.619Z,37.50
2023-03-05T16:05:12.504Z,40.25
2023-03-05T16:07:43.543Z,37.75
2023-03-05T16:10:14.869Z,41.00
2023-03-05T16:12:43.026Z,54.75
2023-03-05T16:15:18.308Z,44.00
2023-03-05T16:17:49.395Z,39.00
2023-03-05T16:20:16.722Z,50.00
2023-03-05T16:22:44.683Z,44.25
2023-03-05T16:25:11.516Z,57.00
2023-03-05T16:27:38.319Z,61.75
2023-03-05T16:30:06.412Z,62.00
2023-03-05T16:32:33.321Z,57.00
2023-03-05T16:35:00.180Z,66.50
2023-03-05T16:37:26.984Z,69.75
2023-03-05T16:39:59.288Z,81.75
2023-03-05T16:42:26.143Z,67.00
2023-03-05T16:44:52.987Z,41.50
2023-03-05T16:47:19.766Z,40.25
2023-03-05T16:49:46.740Z,38.75
2023-03-05T16:52:19.174Z,42.75
2023-03-05T16:54:47.200Z,50.00
2023-03-05T16:57:14.463Z,61.00
2023-03-05T16:59:42.120Z,44.75
2023-03-05T17:02:09.063Z,39.00
2023-03-05T17:04:37.264Z,36.00
2023-03-05T17:07:05.570Z,46.00
2023-03-05T17:09:32.589Z,33.00
2023-03-05T17:11:59.527Z,36.75
2023-03-05T17:14:26.970Z,34.50
2023-03-05T17:16:54.178Z,33.50
2023-03-05T17:19:21.271Z,34.50
2023-03-05T17:21:51.124Z,43.00
2023-03-05T17:24:21.452Z,51.25
2023-03-05T17:26:49.982Z,48.50
2023-03-05T17:29:19.046Z,85.00
2023-03-05T17:31:46.820Z,62.25
2023-03-05T17:34:14.416Z,93.75
2023-03-05T17:36:41.317Z,87.25
2023-03-05T17:39:08.973Z,123.25
2023-03-05T17:41:36.272Z,116.25
2023-03-05T17:44:03.117Z,76.50
2023-03-05T17:46:30.142Z,60.75
2023-03-05T17:48:56.999Z,69.50
2023-03-05T17:51:23.755Z,69.75
2023-03-05T17:53:50.632Z,108.00
2023-03-05T17:56:20.352Z,78.75
2023-03-05T17:58:47.152Z,90.75
2023-03-05T18:01:22.734Z,42.25
2023-03-05T18:03:49.713Z,50.25
2023-03-05T18:06:16.596Z,56.50
2023-03-05T18:08:43.490Z,56.75
2023-03-05T18:11:10.361Z,28.00
2023-03-05T18:13:37.549Z,46.25
2023-03-05T18:16:04.760Z,39.75
2023-03-05T18:18:31.630Z,42.00
2023-03-05T18:20:58.603Z,67.50
2023-03-05T18:23:25.475Z,43.50
2023-03-05T18:25:52.545Z,44.25
2023-03-05T18:28:19.425Z,45.00
2023-03-05T18:30:46.915Z,47.50
2023-03-05T18:33:24.826Z,63.25
2023-03-05T18:35:52.676Z,67.75
2023-03-05T18:38:25.241Z,44.00
2023-03-05T18:40:54.455Z,85.50
2023-03-05T18:43:22.478Z,50.50
2023-03-05T18:45:51.249Z,67.00
2023-03-05T18:48:18.884Z,90.00
2023-03-05T18:50:46.725Z,89.25
2023-03-05T18:53:14.558Z,94.50
2023-03-05T18:55:44.930Z,89.75
2023-03-05T18:58:15.841Z,101.25
2023-03-05T19:00:46.883Z,113.50
2023-03-05T19:03:15.169Z,116.50
2023-03-05T19:05:42.938Z,102.50
2023-03-05T19:08:10.545Z,101.75
2023-03-05T19:10:37.947Z,108.25
2023-03-05T19:13:39.577Z,93.25
2023-03-05T19:16:08.882Z,81.00
2023-03-05T19:18:54.004Z,80.25
2023-03-05T19:22:01.934Z,112.00
2023-03-05T19:24:30.539Z,90.75
2023-03-05T19:27:01.032Z,80.00
2023-03-05T19:29:33.146Z,116.75
2023-03-05T19:32:00.159Z,121.25
2023-03-05T19:34:26.978Z,136.25
2023-03-05T19:36:53.741Z,120.00
2023-03-05T19:39:20.503Z,128.25
2023-03-05T19:41:47.372Z,116.75
2023-03-05T19:44:14.592Z,111.50
2023-03-05T19:46:44.208Z,102.50
2023-03-05T19:49:11.346Z,93.75
2023-03-05T19:51:39.893Z,122.50
2023-03-05T19:54:06.809Z,112.00
2023-03-05T19:56:33.738Z,118.50
2023-03-05T19:59:00.573Z,115.75
2023-03-05T20:01:28.038Z,108.25
2023-03-05T20:03:57.364Z,112.50
2023-03-05T20:06:26.340Z,112.00
2023-03-05T20:08:53.312Z,103.75
2023-03-05T20:11:20.799Z,104.50
2023-03-05T20:13:48.391Z,109.75
2023-03-05T20:16:19.674Z,117.50
2023-03-05T20:18:47.840Z,97.00
2023-03-05T20:21:21.526Z,94.00
2023-03-05T20:23:52.200Z,100.00
2023-03-05T20:26:20.292Z,92.50
2023-03-05T20:28:48.053Z,111.00
2023-03-05T20:31:18.907Z,94.75
2023-03-05T20:33:45.854Z,103.00
2023-03-05T20:36:12.727Z,91.50
2023-03-05T20:38:39.584Z,126.75
2023-03-05T20:41:09.591Z,155.00
2023-03-05T20:43:41.360Z,109.75
2023-03-05T20:46:26.967Z,131.75
2023-03-05T20:48:56.688Z,95.75
2023-03-05T20:51:27.936Z,100.00
2023-03-05T20:53:58.626Z,88.50
2023-03-05T20:56:29.262Z,93.75
2023-03-05T20:58:58.398Z,110.50
2023-03-05T21:01:26.656Z,101.25
2023-03-05T21:03:57.060Z,95.25
2023-03-05T21:06:25.054Z,88.50
2023-03-05T21:08:52.691Z,78.00
2023-03-05T21:11:20.810Z,81.25
2023-03-05T21:13:47.887Z,77.75
2023-03-05T21:16:18.227Z,82.75
2023-03-05T21:18:45.286Z,94.00
2023-03-05T21:21:12.202Z,94.00
2023-03-05T21:23:39.143Z,97.00
2023-03-05T21:26:06.269Z,104.50
2023-03-05T21:28:33.454Z,85.25
2023-03-05T21:31:07.502Z,87.50
2023-03-05T21:33:34.440Z,78.00
2023-03-05T21:36:01.597Z,91.50
2023-03-05T21:38:30.562Z,85.50
2023-03-05T21:40:58.976Z,84.25
2023-03-05T21:43:26.927Z,85.00
2023-03-05T21:45:57.200Z,86.25
2023-03-05T21:48:25.081Z,90.75
2023-03-05T21:50:53.048Z,90.50
2023-03-05T21:53:20.282Z,88.75
2023-03-05T21:56:18.687Z,84.25
2023-03-05T21:58:49.023Z,83.50
2023-03-05T22:01:18.497Z,86.75
2023-03-05T22:03:46.062Z,87.25
2023-03-05T22:06:15.155Z,79.00
2023-03-05T22:08:42.468Z,85.75
2023-03-05T22:11:14.455Z,80.25
2023-03-05T22:13:41.895Z,78.25
2023-03-05T22:16:09.381Z,88.25
2023-03-05T22:18:36.914Z,81.50
2023-03-05T22:21:04.819Z,75.50
2023-03-05T22:23:36.865Z,77.00
2023-03-05T22:26:06.619Z,78.75
2023-03-05T22:28:35.027Z,77.00
2023-03-05T22:31:03.020Z,70.25
2023-03-05T22:33:30.779Z,69.50
2023-03-05T22:35:58.211Z,83.75
2023-03-05T22:38:25.452Z,79.25
2023-03-05T22:40:53.361Z,75.25
2023-03-05T22:43:20.571Z,84.00
2023-03-05T22:45:47.489Z,56.75
2023-03-05T22:48:14.339Z,62.00
2023-03-05T22:50:44.013Z,60.50
2023-03-05T22:53:12.155Z,56.00
2023-03-05T22:55:40.541Z,67.50
2023-03-05T22:58:07.437Z,68.50
2023-03-05T23:00:34.321Z,62.75
2023-03-05T23:03:01.500Z,67.50
2023-03-05T23:05:28.383Z,61.50
2023-03-05T23:07:55.300Z,67.00
2023-03-05T23:10:26.976Z,62.75
2023-03-05T23:12:56.044Z,64.25
2023-03-05T23:15:26.395Z,79.25
2023-03-05T23:17:53.677Z,62.75
2023-03-05T23:20:24.289Z,77.25
2023-03-05T23:22:56.121Z,65.50
2023-03-05T23:25:26.453Z,67.50
2023-03-05T23:27:53.777Z,60.25
2023-03-05T23:30:21.541Z,59.25
2023-03-05T23:32:57.296Z,62.25
2023-03-05T23:35:28.175Z,70.00
2023-03-05T23:37:56.662Z,71.75
2023-03-05T23:40:29.212Z,63.50
2023-03-05T23:42:56.773Z,68.50
2023-03-05T23:45:23.812Z,65.50
2023-03-05T23:47:51.620Z,68.25
2023-03-05T23:50:22.208Z,68.25
2023-03-05T23:52:50.283Z,49.25
2023-03-05T23:55:26.264Z,54.25
2023-03-05T23:57:53.467Z,52.50
